createdAt,value
2024-01-04T00:01:22.323Z,98331.22
2024-01-04T00:03:51.597Z,98322.09
2024-01-04T00:06:22.412Z,98332.59
2024-01-04T00:08:55.459Z,98323.19
2024-01-04T00:11:25.033Z,98322.22
2024-01-04T00:13:54.692Z,98292.28
2024-01-04T00:16:24.067Z,98319.31
2024-01-04T00:18:53.808Z,98316.94
2024-01-04T00:21:24.577Z,98312.66
2024-01-04T00:23:54.004Z,98312.53
2024-01-04T00:26:23.428Z,98300.06
2024-01-04T00:28:52.763Z,98302.19
2024-01-04T00:31:22.028Z,98294.38
2024-01-04T00:33:51.442Z,98300.47
2024-01-04T00:36:20.832Z,98293.91
2024-01-04T00:38:51.589Z,98300.78
2024-01-04T00:41:20.896Z,98303.06
2024-01-04T00:43:50.189Z,98312.06
2024-01-04T00:46:19.493Z,98304.44
2024-01-04T00:48:49.742Z,98317.69
2024-01-04T00:51:19.018Z,98310.09
2024-01-04T00:53:48.315Z,98324.09
2024-01-04T00:56:19.012Z,98319.69
2024-01-04T00:58:48.336Z,98313.13
2024-01-04T01:01:17.936Z,98324.25
2024-01-04T01:03:47.183Z,98317.59
2024-01-04T01:06:16.440Z,98312.38
2024-01-04T01:08:46.123Z,98308.16
2024-01-04T01:11:15.450Z,98315.38
2024-01-04T01:13:46.130Z,98316.00
2024-01-04T01:16:15.454Z,98301.53
2024-01-04T01:18:44.781Z,98307.81
2024-01-04T01:21:14.525Z,98315.31
2024-01-04T01:23:43.866Z,98315.22
2024-01-04T01:26:13.166Z,98301.13
2024-01-04T01:28:43.860Z,98311.25
2024-01-04T01:31:14.544Z,98305.56
2024-01-04T01:33:47.281Z,98315.06
2024-01-04T01:36:18.826Z,98318.78
2024-01-04T01:38:48.200Z,98312.25
2024-01-04T01:41:18.291Z,98313.06
2024-01-04T01:43:49.501Z,98312.56
2024-01-04T01:46:21.823Z,98321.19
2024-01-04T01:48:51.577Z,98332.81
2024-01-04T01:51:20.922Z,98325.19
2024-01-04T01:53:50.436Z,98326.81
2024-01-04T01:56:22.732Z,98309.84
2024-01-04T01:58:53.913Z,98327.88
2024-01-04T02:01:24.899Z,98331.09
2024-01-04T02:03:57.472Z,98325.53
2024-01-04T02:06:27.078Z,98329.28
2024-01-04T02:08:56.607Z,98301.78
2024-01-04T02:11:28.028Z,98323.31
2024-01-04T02:13:57.570Z,98339.78
2024-01-04T02:16:31.947Z,98331.03
2024-01-04T02:19:01.699Z,98334.97
2024-01-04T02:21:31.278Z,98321.66
2024-01-04T02:24:03.939Z,98331.78
2024-01-04T02:26:35.106Z,98324.31
2024-01-04T02:29:04.569Z,98337.13
2024-01-04T02:31:36.775Z,98287.97
2024-01-04T02:34:06.362Z,98336.25
2024-01-04T02:36:37.621Z,98317.84
2024-01-04T02:39:12.859Z,98318.72
2024-01-04T02:41:42.334Z,98328.06
2024-01-04T02:44:12.786Z,98330.53
2024-01-04T02:46:44.679Z,98322.19
2024-01-04T02:49:14.280Z,98343.47
2024-01-04T02:51:43.851Z,98349.63
2024-01-04T02:54:14.687Z,98350.34
2024-01-04T02:56:45.113Z,98347.50
2024-01-04T02:59:14.496Z,98343.69
2024-01-04T03:01:49.699Z,98348.78
2024-01-04T03:04:19.113Z,98334.34
2024-01-04T03:06:48.637Z,98339.38
2024-01-04T03:09:19.524Z,98309.28
2024-01-04T03:11:49.034Z,98309.75
2024-01-04T03:14:18.585Z,98342.44
2024-01-04T03:16:47.859Z,98352.09
2024-01-04T03:19:19.818Z,98350.66
2024-01-04T03:21:49.230Z,98358.81
2024-01-04T03:24:19.972Z,98349.00
2024-01-04T03:26:50.096Z,98364.81
2024-01-04T03:29:21.199Z,98375.06
2024-01-04T03:31:50.590Z,98372.34
2024-01-04T03:34:24.276Z,98376.66
2024-01-04T03:36:53.748Z,98362.31
2024-01-04T03:39:24.601Z,98362.81
2024-01-04T03:41:56.661Z,98356.91
2024-01-04T03:44:26.115Z,98350.41
2024-01-04T03:46:58.139Z,98366.41
2024-01-04T03:49:27.567Z,98367.13
2024-01-04T03:51:57.164Z,98361.22
2024-01-04T03:54:27.907Z,98361.13
2024-01-04T03:56:58.401Z,98373.84
2024-01-04T03:59:27.836Z,98380.03
2024-01-04T04:01:58.318Z,98370.41
2024-01-04T04:04:27.919Z,98371.81
2024-01-04T04:06:57.505Z,98384.94
2024-01-04T04:09:28.553Z,98377.69
2024-01-04T04:11:57.899Z,98376.03
2024-01-04T04:14:27.340Z,98371.75
2024-01-04T04:16:56.778Z,98376.22
2024-01-04T04:19:26.445Z,98394.19
2024-01-04T04:21:57.033Z,98352.47
2024-01-04T04:24:27.668Z,98342.09
2024-01-04T04:27:00.174Z,98396.94
2024-01-04T04:29:29.637Z,98399.91
2024-01-04T04:32:02.006Z,98401.88
2024-01-04T04:34:31.741Z,98390.91
2024-01-04T04:37:01.015Z,98376.31
2024-01-04T04:39:31.882Z,98385.19
2024-01-04T04:42:04.445Z,98393.50
2024-01-04T04:44:33.759Z,98382.59
2024-01-04T04:47:03.053Z,98392.63
2024-01-04T04:49:32.422Z,98367.16
2024-01-04T04:52:01.944Z,98392.31
2024-01-04T04:54:32.834Z,98396.69
2024-01-04T04:57:04.313Z,98392.97
2024-01-04T04:59:33.598Z,98384.53
2024-01-04T05:02:03.101Z,98409.59
2024-01-04T05:04:32.525Z,98407.94
2024-01-04T05:07:01.838Z,98418.78
2024-01-04T05:09:32.523Z,98403.19
2024-01-04T05:12:03.506Z,98415.94
2024-01-04T05:14:32.748Z,98406.28
2024-01-04T05:17:02.773Z,98430.97
2024-01-04T05:19:32.060Z,98429.09
2024-01-04T05:22:04.738Z,98423.53
2024-01-04T05:24:38.572Z,98433.31
2024-01-04T05:27:10.309Z,98429.69
2024-01-04T05:29:39.576Z,98435.97
2024-01-04T05:32:09.264Z,98426.13
2024-01-04T05:34:38.687Z,98435.66
2024-01-04T05:37:07.973Z,98447.53
2024-01-04T05:39:41.165Z,98435.31
2024-01-04T05:42:10.509Z,98436.13
2024-01-04T05:44:39.928Z,98449.22
2024-01-04T05:47:09.525Z,98451.56
2024-01-04T05:49:39.196Z,98455.41
2024-01-04T05:52:09.739Z,98458.44
2024-01-04T05:54:40.427Z,98453.09
2024-01-04T05:57:10.113Z,98465.28
2024-01-04T05:59:39.377Z,98466.94
2024-01-04T06:02:08.687Z,98455.22
2024-01-04T06:04:37.986Z,98480.63
2024-01-04T06:07:07.297Z,98475.53
2024-01-04T06:09:36.631Z,98470.38
2024-01-04T06:12:08.294Z,98469.31
2024-01-04T06:14:37.632Z,98477.38
2024-01-04T06:17:08.802Z,98394.63
2024-01-04T06:19:38.291Z,98451.06
2024-01-04T06:22:07.794Z,98463.94
2024-01-04T06:24:37.096Z,98479.69
2024-01-04T06:27:08.023Z,98477.13
2024-01-04T06:29:37.370Z,98476.19
2024-01-04T06:32:07.563Z,98473.59
2024-01-04T06:34:36.859Z,98464.25
2024-01-04T06:37:06.495Z,98470.13
2024-01-04T06:39:36.208Z,98476.47
2024-01-04T06:42:07.574Z,98477.78
2024-01-04T06:44:41.926Z,98479.13
2024-01-04T06:47:16.930Z,98484.66
2024-01-04T06:49:46.261Z,98484.88
2024-01-04T06:52:15.576Z,98468.53
2024-01-04T06:54:44.830Z,98475.44
2024-01-04T06:57:15.716Z,98482.16
2024-01-04T06:59:45.047Z,98481.75
2024-01-04T07:02:14.569Z,98494.84
2024-01-04T07:04:43.832Z,98471.06
2024-01-04T07:07:13.163Z,98498.81
2024-01-04T07:09:42.584Z,98503.78
2024-01-04T07:12:12.276Z,98494.78
2024-01-04T07:14:44.133Z,98494.50
2024-01-04T07:17:13.404Z,98473.00
2024-01-04T07:19:44.310Z,98494.44
2024-01-04T07:22:14.185Z,98504.66
2024-01-04T07:24:43.837Z,98498.31
2024-01-04T07:27:13.211Z,98514.97
2024-01-04T07:29:44.830Z,98481.16
2024-01-04T07:32:19.681Z,98510.63
2024-01-04T07:34:53.052Z,98506.72
2024-01-04T07:37:29.775Z,98497.38
2024-01-04T07:39:59.062Z,98498.00
2024-01-04T07:42:28.366Z,98516.44
2024-01-04T07:45:05.805Z,98504.25
2024-01-04T07:47:38.618Z,98504.22
2024-01-04T07:50:09.461Z,98489.50
2024-01-04T07:52:39.438Z,98495.44
2024-01-04T07:55:09.164Z,98505.72
2024-01-04T07:57:38.559Z,98501.41
2024-01-04T08:00:11.425Z,98504.06
2024-01-04T08:02:43.708Z,98502.22
2024-01-04T08:05:15.199Z,98506.72
2024-01-04T08:07:45.590Z,98489.34
2024-01-04T08:10:15.553Z,98492.84
2024-01-04T08:12:47.267Z,98500.38
2024-01-04T08:15:18.202Z,98510.88
2024-01-04T08:17:47.754Z,98510.38
2024-01-04T08:20:19.641Z,98479.31
2024-01-04T08:22:49.276Z,98514.44
2024-01-04T08:25:18.798Z,98495.53
2024-01-04T08:27:48.098Z,98509.47
2024-01-04T08:30:18.859Z,98507.53
2024-01-04T08:32:48.420Z,98500.38
2024-01-04T08:35:18.688Z,98512.22
2024-01-04T08:37:48.184Z,98512.28
2024-01-04T08:40:20.548Z,98508.63
2024-01-04T08:42:49.881Z,98513.88
2024-01-04T08:45:21.352Z,98497.63
2024-01-04T08:47:50.992Z,98495.78
2024-01-04T08:50:21.158Z,98481.97
2024-01-04T08:52:50.548Z,98512.16
2024-01-04T08:55:21.490Z,98510.31
2024-01-04T08:57:50.806Z,98519.13
2024-01-04T09:00:22.226Z,98451.66
2024-01-04T09:02:51.740Z,98492.63
2024-01-04T09:05:21.038Z,98486.81
2024-01-04T09:07:50.925Z,98510.50
2024-01-04T09:10:21.288Z,98513.75
2024-01-04T09:12:52.394Z,98515.03
2024-01-04T09:15:23.864Z,98514.69
2024-01-04T09:17:53.331Z,98490.78
2024-01-04T09:20:22.824Z,98507.50
2024-01-04T09:22:52.566Z,98513.91
2024-01-04T09:25:28.085Z,98500.44
2024-01-04T09:27:58.563Z,98500.75
2024-01-04T09:30:30.832Z,98506.97
2024-01-04T09:33:00.939Z,98506.41
2024-01-04T09:35:30.411Z,98503.00
2024-01-04T09:37:59.693Z,98463.09
2024-01-04T09:40:29.005Z,98513.13
2024-01-04T09:43:00.907Z,98502.38
2024-01-04T09:45:35.363Z,98504.88
2024-01-04T09:48:20.559Z,98512.81
2024-01-04T09:50:54.542Z,98506.97
2024-01-04T09:53:24.083Z,98495.81
2024-01-04T09:55:57.220Z,98495.22
2024-01-04T09:58:34.579Z,98510.47
2024-01-04T10:01:06.978Z,98505.66
2024-01-04T10:03:37.083Z,98497.88
2024-01-04T10:06:09.841Z,98494.34
2024-01-04T10:08:44.924Z,98493.75
2024-01-04T10:11:20.681Z,98489.50
2024-01-04T10:13:53.625Z,98498.59
2024-01-04T10:16:25.184Z,98497.69
2024-01-04T10:18:57.114Z,98498.56
2024-01-04T10:21:35.160Z,98487.13
2024-01-04T10:24:04.973Z,98483.13
2024-01-04T10:26:34.620Z,98488.47
2024-01-04T10:29:04.201Z,98484.31
2024-01-04T10:31:36.176Z,98486.16
2024-01-04T10:34:05.613Z,98481.81
2024-01-04T10:36:39.448Z,98477.63
2024-01-04T10:39:10.262Z,98482.25
2024-01-04T10:41:39.536Z,98473.78
2024-01-04T10:44:09.261Z,98471.13
2024-01-04T10:46:40.208Z,98467.22
2024-01-04T10:49:09.586Z,98479.06
2024-01-04T10:51:39.318Z,98473.75
2024-01-04T10:54:09.977Z,98470.69
2024-01-04T10:56:39.506Z,98475.84
2024-01-04T10:59:09.747Z,98482.09
2024-01-04T11:01:41.749Z,98477.66
2024-01-04T11:04:11.953Z,98487.19
2024-01-04T11:06:42.312Z,98485.75
2024-01-04T11:09:12.163Z,98482.31
2024-01-04T11:11:42.795Z,98473.00
2024-01-04T11:14:12.273Z,98470.66
2024-01-04T11:17:00.527Z,98473.72
2024-01-04T11:19:46.357Z,98475.59
2024-01-04T11:22:34.303Z,98449.75
2024-01-04T11:25:09.070Z,98478.47
2024-01-04T11:27:39.088Z,98472.88
2024-01-04T11:30:10.868Z,98470.66
2024-01-04T11:32:45.855Z,98480.44
2024-01-04T11:35:16.713Z,98492.69
2024-01-04T11:37:55.286Z,98488.84
2024-01-04T11:40:28.834Z,98478.50
2024-01-04T11:42:58.235Z,98485.44
2024-01-04T11:45:27.626Z,98471.66
2024-01-04T11:47:58.619Z,98486.84
2024-01-04T11:50:30.507Z,98472.00
2024-01-04T11:53:07.555Z,98491.25
2024-01-04T11:55:37.637Z,98501.31
2024-01-04T11:58:10.149Z,98502.47
2024-01-04T12:00:40.524Z,98509.09
2024-01-04T12:03:18.605Z,98502.06
2024-01-04T12:05:51.469Z,98506.97
2024-01-04T12:08:26.794Z,98506.53
2024-01-04T12:10:56.534Z,98492.91
2024-01-04T12:13:26.272Z,98490.22
2024-01-04T12:15:55.712Z,98499.16
2024-01-04T12:18:27.900Z,98504.88
2024-01-04T12:21:07.382Z,98474.03
2024-01-04T12:23:44.531Z,98494.41
2024-01-04T12:26:15.300Z,98506.81
2024-01-04T12:28:45.986Z,98495.53
2024-01-04T12:31:15.613Z,98498.03
2024-01-04T12:33:50.367Z,98496.09
2024-01-04T12:36:24.101Z,98502.88
2024-01-04T12:38:55.418Z,98507.25
2024-01-04T12:41:30.965Z,98507.22
2024-01-04T12:44:00.429Z,98499.16
2024-01-04T12:46:32.214Z,98502.94
2024-01-04T12:49:10.357Z,98515.59
2024-01-04T12:51:44.305Z,98518.13
2024-01-04T12:54:13.912Z,98517.84
2024-01-04T12:56:43.401Z,98519.75
2024-01-04T12:59:17.356Z,98517.78
2024-01-04T13:01:46.698Z,98522.25
2024-01-04T13:04:17.727Z,98528.44
2024-01-04T13:06:49.083Z,98517.34
2024-01-04T13:09:19.275Z,98518.31
2024-01-04T13:11:48.972Z,98537.56
2024-01-04T13:14:18.300Z,98538.47
2024-01-04T13:16:48.942Z,98544.38
2024-01-04T13:19:19.798Z,98546.47
2024-01-04T13:21:49.602Z,98554.41
2024-01-04T13:24:18.982Z,98527.06
2024-01-04T13:26:48.589Z,98562.59
2024-01-04T13:29:18.356Z,98558.97
2024-01-04T13:31:48.455Z,98552.16
2024-01-04T13:34:42.566Z,98566.34
2024-01-04T13:37:14.051Z,98530.63
2024-01-04T13:39:43.806Z,98483.53
2024-01-04T13:42:14.048Z,98558.41
2024-01-04T13:44:43.516Z,98564.34
2024-01-04T13:47:12.961Z,98574.41
2024-01-04T13:49:42.450Z,98570.09
2024-01-04T13:52:13.263Z,98544.41
2024-01-04T13:54:43.621Z,98570.28
2024-01-04T13:57:12.936Z,98574.66
2024-01-04T13:59:42.792Z,98573.91
2024-01-04T14:02:12.033Z,98574.75
2024-01-04T14:04:41.300Z,98544.81
2024-01-04T14:07:10.893Z,98571.22
2024-01-04T14:09:41.681Z,98569.84
2024-01-04T14:12:13.709Z,98568.97
2024-01-04T14:14:43.222Z,98540.84
2024-01-04T14:17:12.968Z,98579.25
2024-01-04T14:19:41.314Z,98578.84
2024-01-04T14:22:13.634Z,98564.81
2024-01-04T14:24:47.452Z,98585.63
2024-01-04T14:27:17.809Z,98583.72
2024-01-04T14:29:47.483Z,98579.91
2024-01-04T14:32:16.792Z,98577.09
2024-01-04T14:34:46.413Z,98563.63
2024-01-04T14:37:15.859Z,98574.69
2024-01-04T14:39:46.542Z,98572.72
2024-01-04T14:42:15.859Z,98544.78
2024-01-04T14:44:46.216Z,98587.22
2024-01-04T14:47:18.991Z,98580.84
2024-01-04T14:49:48.330Z,98578.72
2024-01-04T14:52:20.747Z,98575.94
2024-01-04T14:54:52.534Z,98587.06
2024-01-04T14:57:21.898Z,98573.84
2024-01-04T14:59:51.516Z,98577.47
2024-01-04T15:02:23.049Z,98565.03
2024-01-04T15:04:52.314Z,98569.09
2024-01-04T15:07:21.589Z,98575.50
2024-01-04T15:09:52.260Z,98574.13
2024-01-04T15:12:21.971Z,98576.22
2024-01-04T15:14:51.316Z,98575.16
2024-01-04T15:17:23.996Z,98566.63
2024-01-04T15:19:53.554Z,98584.28
2024-01-04T15:22:23.088Z,98578.75
2024-01-04T15:25:00.080Z,98584.88
2024-01-04T15:27:29.682Z,98574.38
2024-01-04T15:29:59.043Z,98584.50
2024-01-04T15:32:30.158Z,98581.91
2024-01-04T15:34:59.911Z,98596.28
2024-01-04T15:37:32.830Z,98593.28
2024-01-04T15:40:06.423Z,98594.19
2024-01-04T15:42:36.029Z,98593.00
2024-01-04T15:45:07.294Z,98511.59
2024-01-04T15:47:36.916Z,98588.38
2024-01-04T15:50:07.125Z,98580.28
2024-01-04T15:52:38.612Z,98571.88
2024-01-04T15:55:10.792Z,98587.03
2024-01-04T15:57:40.434Z,98583.81
2024-01-04T16:00:11.042Z,98588.72
2024-01-04T16:02:40.650Z,98591.19
2024-01-04T16:05:11.583Z,98596.41
2024-01-04T16:07:43.549Z,98601.69
2024-01-04T16:10:15.320Z,98594.34
2024-01-04T16:12:45.931Z,98603.41
2024-01-04T16:15:15.487Z,98574.97
2024-01-04T16:17:47.022Z,98579.69
2024-01-04T16:20:26.316Z,98588.56
2024-01-04T16:23:00.407Z,98592.97
2024-01-04T16:25:31.195Z,98589.66
2024-01-04T16:28:01.021Z,98593.44
2024-01-04T16:30:30.563Z,98585.09
2024-01-04T16:33:00.025Z,98605.72
2024-01-04T16:35:29.337Z,98584.59
2024-01-04T16:37:58.636Z,98586.00
2024-01-04T16:40:30.167Z,98592.63
2024-01-04T16:43:00.916Z,98590.47
2024-01-04T16:45:30.226Z,98592.47
2024-01-04T16:48:00.047Z,98590.47
2024-01-04T16:50:33.330Z,98604.09
2024-01-04T16:53:02.670Z,98594.06
2024-01-04T16:55:34.351Z,98600.00
2024-01-04T16:58:05.726Z,98594.06
2024-01-04T17:00:35.203Z,98606.28
2024-01-04T17:03:26.672Z,98599.84
2024-01-04T17:05:57.527Z,98602.84
2024-01-04T17:08:26.873Z,98573.22
2024-01-04T17:10:56.264Z,98606.44
2024-01-04T17:13:27.047Z,98604.78
2024-01-04T17:15:56.540Z,98605.03
2024-01-04T17:18:31.531Z,98607.88
2024-01-04T17:21:00.984Z,98606.06
2024-01-04T17:23:32.269Z,98575.06
2024-01-04T17:26:03.607Z,98618.78
2024-01-04T17:28:34.608Z,98613.78
2024-01-04T17:31:06.357Z,98604.06
2024-01-04T17:33:38.468Z,98608.78
2024-01-04T17:36:21.982Z,98608.59
2024-01-04T17:38:56.277Z,98603.94
2024-01-04T17:41:25.781Z,98606.53
2024-01-04T17:43:59.282Z,98601.94
2024-01-04T17:46:28.586Z,98602.50
2024-01-04T17:48:58.097Z,98589.88
2024-01-04T17:51:27.585Z,98575.06
2024-01-04T17:53:57.105Z,98613.69
2024-01-04T17:56:26.545Z,98613.56
2024-01-04T17:58:55.921Z,98611.38
2024-01-04T18:01:27.077Z,98603.91
2024-01-04T18:03:56.688Z,98604.09
2024-01-04T18:06:29.620Z,98618.69
2024-01-04T18:08:58.878Z,98610.44
2024-01-04T18:11:28.136Z,98621.00
2024-01-04T18:14:00.171Z,98583.34
2024-01-04T18:16:31.049Z,98607.88
2024-01-04T18:19:01.088Z,98577.03
2024-01-04T18:21:30.806Z,98593.41
2024-01-04T18:24:00.177Z,98608.84
2024-01-04T18:26:29.931Z,98607.63
2024-01-04T18:28:59.648Z,98599.19
2024-01-04T18:31:30.432Z,98609.41
2024-01-04T18:34:00.100Z,98613.59
2024-01-04T18:36:32.867Z,98597.72
2024-01-04T18:39:04.664Z,98607.41
2024-01-04T18:41:37.720Z,98609.81
2024-01-04T18:44:07.407Z,98609.97
2024-01-04T18:46:38.356Z,98600.38
2024-01-04T18:49:08.011Z,98594.06
2024-01-04T18:51:37.965Z,98603.47
2024-01-04T18:54:07.813Z,98615.94
2024-01-04T18:56:37.503Z,98601.53
2024-01-04T18:59:07.650Z,98542.72
2024-01-04T19:01:41.663Z,98609.09
2024-01-04T19:04:11.430Z,98596.19
2024-01-04T19:06:40.830Z,98615.09
2024-01-04T19:09:16.817Z,98590.50
2024-01-04T19:11:46.273Z,98620.16
2024-01-04T19:14:15.749Z,98609.38
2024-01-04T19:16:47.745Z,98623.88
2024-01-04T19:19:17.319Z,98621.72
2024-01-04T19:21:46.969Z,98622.44
2024-01-04T19:24:17.655Z,98617.91
2024-01-04T19:26:50.173Z,98617.47
2024-01-04T19:29:19.650Z,98615.63
2024-01-04T19:31:52.368Z,98620.38
2024-01-04T19:34:21.758Z,98608.97
2024-01-04T19:36:53.491Z,98632.59
2024-01-04T19:39:23.958Z,98615.06
2024-01-04T19:41:54.575Z,98616.66
2024-01-04T19:44:24.024Z,98611.72
2024-01-04T19:46:55.046Z,98591.09
2024-01-04T19:49:31.924Z,98626.78
2024-01-04T19:52:01.262Z,98623.16
2024-01-04T19:54:30.806Z,98623.88
2024-01-04T19:57:00.250Z,98613.13
2024-01-04T19:59:30.039Z,98629.56
2024-01-04T20:02:00.749Z,98639.34
2024-01-04T20:04:30.071Z,98639.50
2024-01-04T20:06:59.445Z,98632.34
2024-01-04T20:09:28.836Z,98638.00
2024-01-04T20:11:58.257Z,98643.97
2024-01-04T20:14:28.951Z,98650.72
2024-01-04T20:16:58.376Z,98651.56
2024-01-04T20:19:29.296Z,98620.47
2024-01-04T20:22:06.567Z,98627.28
2024-01-04T20:24:36.196Z,98592.38
2024-01-04T20:27:06.122Z,98621.47
2024-01-04T20:29:39.297Z,98625.84
2024-01-04T20:32:09.288Z,98591.34
2024-01-04T20:34:40.299Z,98615.00
2024-01-04T20:37:10.864Z,98637.31
2024-01-04T20:39:41.783Z,98650.94
2024-01-04T20:42:14.700Z,98649.22
2024-01-04T20:44:44.011Z,98619.97
2024-01-04T20:47:13.388Z,98632.88
2024-01-04T20:49:51.887Z,98639.06
2024-01-04T20:52:24.940Z,98608.88
2024-01-04T20:54:57.483Z,98640.19
2024-01-04T20:57:31.410Z,98608.13
2024-01-04T21:00:00.894Z,98614.47
2024-01-04T21:03:13.846Z,98598.31
2024-01-04T21:06:05.510Z,98639.28
2024-01-04T21:09:05.843Z,98627.34
2024-01-04T21:12:10.035Z,98601.25
2024-01-04T21:14:57.214Z,98599.63
2024-01-04T21:17:27.070Z,98628.78
2024-01-04T21:19:56.443Z,98636.22
2024-01-04T21:22:27.716Z,98643.50
2024-01-04T21:24:59.996Z,98638.06
2024-01-04T21:27:30.602Z,98640.00
2024-01-04T21:30:00.018Z,98591.63
2024-01-04T21:32:34.664Z,98638.22
2024-01-04T21:35:03.996Z,98637.28
2024-01-04T21:37:34.679Z,98628.59
2024-01-04T21:40:06.577Z,98640.84
2024-01-04T21:42:45.665Z,98634.75
2024-01-04T21:45:31.458Z,98567.44
2024-01-04T21:48:21.343Z,98568.94
2024-01-04T21:50:51.725Z,98536.88
2024-01-04T21:53:22.508Z,98646.22
2024-01-04T21:55:53.946Z,98585.78
2024-01-04T21:58:27.583Z,98636.94
2024-01-04T22:01:24.183Z,98656.13
2024-01-04T22:03:53.576Z,98628.78
2024-01-04T22:06:25.114Z,98646.69
2024-01-04T22:08:56.305Z,98658.94
2024-01-04T22:11:25.733Z,98651.78
2024-01-04T22:13:56.415Z,98663.44
2024-01-04T22:16:33.816Z,98643.91
2024-01-04T22:19:03.324Z,98662.75
2024-01-04T22:21:33.077Z,98650.44
2024-01-04T22:24:05.507Z,98655.69
2024-01-04T22:26:35.169Z,98644.09
2024-01-04T22:29:04.476Z,98597.56
2024-01-04T22:31:33.690Z,98655.56
2024-01-04T22:34:03.323Z,98664.91
2024-01-04T22:36:33.075Z,98664.75
2024-01-04T22:39:08.305Z,98663.31
2024-01-04T22:41:39.954Z,98651.75
2024-01-04T22:44:12.411Z,98654.16
2024-01-04T22:46:44.705Z,98649.81
2024-01-04T22:49:14.252Z,98666.59
2024-01-04T22:51:44.379Z,98665.19
2024-01-04T22:54:15.050Z,98664.81
2024-01-04T22:56:44.550Z,98642.06
2024-01-04T22:59:13.985Z,98665.41
2024-01-04T23:01:43.220Z,98664.06
2024-01-04T23:04:12.490Z,98671.88
2024-01-04T23:06:42.032Z,98645.97
2024-01-04T23:09:11.566Z,98669.84
2024-01-04T23:11:42.200Z,98675.47
2024-01-04T23:14:11.878Z,98641.28
2024-01-04T23:16:41.364Z,98634.63
2024-01-04T23:19:11.808Z,98674.44
2024-01-04T23:21:41.983Z,98671.38
2024-01-04T23:24:11.627Z,98683.41
2024-01-04T23:26:44.382Z,98668.75
2024-01-04T23:29:13.889Z,98685.09
2024-01-04T23:31:43.140Z,98693.41
2024-01-04T23:34:12.536Z,98675.28
2024-01-04T23:36:42.078Z,98699.47
2024-01-04T23:39:11.727Z,98683.53
2024-01-04T23:41:42.409Z,98690.44
2024-01-04T23:44:11.649Z,98672.72
2024-01-04T23:46:41.167Z,98657.31
2024-01-04T23:49:11.473Z,98695.28
2024-01-04T23:51:42.214Z,98679.34
2024-01-04T23:54:11.926Z,98701.16
2024-01-04T23:56:42.899Z,98698.94
2024-01-04T23:59:12.390Z,98703.56
